sensor_id;sensor_type;location;lat;lon;timestamp;temperature;humidity
1415;DHT22;702;49.466;11.086;2024-03-23T00:55:54;9.80;75.00
1415;DHT22;702;49.466;11.086;2024-03-23T00:58:21;9.90;75.40
1415;DHT22;702;49.466;11.086;2024-03-23T01:00:47;9.80;75.60
1415;DHT22;702;49.466;11.086;2024-03-23T01:03:15;9.70;75.90
1415;DHT22;702;49.466;11.086;2024-03-23T01:05:41;9.60;76.20
1415;DHT22;702;49.466;11.086;2024-03-23T01:08:08;9.50;76.00
1415;DHT22;702;49.466;11.086;2024-03-23T01:10:34;9.50;76.90
1415;DHT22;702;49.466;11.086;2024-03-23T01:13:03;9.50;77.00
1415;DHT22;702;49.466;11.086;2024-03-23T01:15:29;9.50;77.00
1415;DHT22;702;49.466;11.086;2024-03-23T01:17:56;9.40;77.30
1415;DHT22;702;49.466;11.086;2024-03-23T01:20:23;9.30;78.30
1415;DHT22;702;49.466;11.086;2024-03-23T01:22:50;9.20;79.00
1415;DHT22;702;49.466;11.086;2024-03-23T01:25:16;9.30;79.80
1415;DHT22;702;49.466;11.086;2024-03-23T01:27:43;9.30;79.40
1415;DHT22;702;49.466;11.086;2024-03-23T01:30:11;9.40;79.00
1415;DHT22;702;49.466;11.086;2024-03-23T01:32:39;9.60;78.40
1415;DHT22;702;49.466;11.086;2024-03-23T01:35:06;9.60;78.60
1415;DHT22;702;49.466;11.086;2024-03-23T01:37:34;9.70;78.60
1415;DHT22;702;49.466;11.086;2024-03-23T01:40:00;9.80;78.10
1415;DHT22;702;49.466;11.086;2024-03-23T01:42:30;9.90;78.20
1415;DHT22;702;49.466;11.086;2024-03-23T01:44:56;10.10;77.00
1415;DHT22;702;49.466;11.086;2024-03-23T01:47:25;10.10;76.60
1415;DHT22;702;49.466;11.086;2024-03-23T01:49:51;10.20;76.50
1415;DHT22;702;49.466;11.086;2024-03-23T01:52:19;10.40;76.60
1415;DHT22;702;49.466;11.086;2024-03-23T01:54:45;10.40;75.90
1415;DHT22;702;49.466;11.086;2024-03-23T01:57:13;10.50;76.00
1415;DHT22;702;49.466;11.086;2024-03-23T01:59:39;10.50;75.80
1415;DHT22;702;49.466;11.086;2024-03-23T02:02:06;10.60;75.50
1415;DHT22;702;49.466;11.086;2024-03-23T02:04:34;10.60;75.10
1415;DHT22;702;49.466;11.086;2024-03-23T02:07:01;10.60;75.40
1415;DHT22;702;49.466;11.086;2024-03-23T02:09:27;10.70;75.00
1415;DHT22;702;49.466;11.086;2024-03-23T02:11:54;10.80;75.20
1415;DHT22;702;49.466;11.086;2024-03-23T02:14:21;10.90;75.00
1415;DHT22;702;49.466;11.086;2024-03-23T02:16:48;10.90;74.80
1415;DHT22;702;49.466;11.086;2024-03-23T02:19:14;10.90;74.60
1415;DHT22;702;49.466;11.086;2024-03-23T02:21:43;10.90;74.20
1415;DHT22;702;49.466;11.086;2024-03-23T02:24:10;10.90;74.30
1415;DHT22;702;49.466;11.086;2024-03-23T02:26:37;10.90;74.10
1415;DHT22;702;49.466;11.086;2024-03-23T02:29:04;10.90;74.40
1415;DHT22;702;49.466;11.086;2024-03-23T02:31:31;11.00;74.50
1415;DHT22;702;49.466;11.086;2024-03-23T02:33:57;11.00;74.50
1415;DHT22;702;49.466;11.086;2024-03-23T02:36:24;10.90;74.20
1415;DHT22;702;49.466;11.086;2024-03-23T02:38:52;11.00;74.70
1415;DHT22;702;49.466;11.086;2024-03-23T02:41:20;11.00;74.90
1415;DHT22;702;49.466;11.086;2024-03-23T02:43:49;11.00;74.10
1415;DHT22;702;49.466;11.086;2024-03-23T02:46:16;11.00;74.50
1415;DHT22;702;49.466;11.086;2024-03-23T02:48:43;11.10;74.60
1415;DHT22;702;49.466;11.086;2024-03-23T02:51:10;11.00;74.20
1415;DHT22;702;49.466;11.086;2024-03-23T02:53:36;11.10;74.30
1415;DHT22;702;49.466;11.086;2024-03-23T02:56:04;11.10;74.20
1415;DHT22;702;49.466;11.086;2024-03-23T02:58:31;11.10;74.20
1415;DHT22;702;49.466;11.086;2024-03-23T03:00:59;11.00;74.10
1415;DHT22;702;49.466;11.086;2024-03-23T03:03:25;11.00;74.00
1415;DHT22;702;49.466;11.086;2024-03-23T03:05:55;11.00;74.30
1415;DHT22;702;49.466;11.086;2024-03-23T03:08:22;11.10;74.40
1415;DHT22;702;49.466;11.086;2024-03-23T03:10:49;11.10;74.30
1415;DHT22;702;49.466;11.086;2024-03-23T03:13:15;11.00;74.10
1415;DHT22;702;49.466;11.086;2024-03-23T03:15:44;11.00;74.10
1415;DHT22;702;49.466;11.086;2024-03-23T03:18:10;11.00;74.40
1415;DHT22;702;49.466;11.086;2024-03-23T03:20:38;11.00;74.40
1415;DHT22;702;49.466;11.086;2024-03-23T03:23:05;11.00;74.50
1415;DHT22;702;49.466;11.086;2024-03-23T03:25:32;11.00;74.80
1415;DHT22;702;49.466;11.086;2024-03-23T03:27:58;11.00;75.40
1415;DHT22;702;49.466;11.086;2024-03-23T03:30:26;11.10;75.80
1415;DHT22;702;49.466;11.086;2024-03-23T03:32:54;11.10;75.70
1415;DHT22;702;49.466;11.086;2024-03-23T03:35:21;11.00;75.70
1415;DHT22;702;49.466;11.086;2024-03-23T03:37:47;11.00;75.60
1415;DHT22;702;49.466;11.086;2024-03-23T03:40:15;10.80;75.90
1415;DHT22;702;49.466;11.086;2024-03-23T03:42:41;10.80;76.50
1415;DHT22;702;49.466;11.086;2024-03-23T03:45:09;10.70;76.30
1415;DHT22;702;49.466;11.086;2024-03-23T03:47:35;10.70;76.40
1415;DHT22;702;49.466;11.086;2024-03-23T03:50:05;10.70;76.20
1415;DHT22;702;49.466;11.086;2024-03-23T03:52:31;10.80;76.30
1415;DHT22;702;49.466;11.086;2024-03-23T03:55:02;10.90;76.10
1415;DHT22;702;49.466;11.086;2024-03-23T03:57:28;11.00;76.30
1415;DHT22;702;49.466;11.086;2024-03-23T03:59:55;11.00;76.20
1415;DHT22;702;49.466;11.086;2024-03-23T04:02:23;10.90;75.60
1415;DHT22;702;49.466;11.086;2024-03-23T04:04:50;10.90;76.00
1415;DHT22;702;49.466;11.086;2024-03-23T04:07:18;10.90;75.80
1415;DHT22;702;49.466;11.086;2024-03-23T04:09:46;10.80;75.60
1415;DHT22;702;49.466;11.086;2024-03-23T04:12:12;10.70;75.80
1415;DHT22;702;49.466;11.086;2024-03-23T04:14:39;10.70;76.00
1415;DHT22;702;49.466;11.086;2024-03-23T04:17:06;10.70;76.30
1415;DHT22;702;49.466;11.086;2024-03-23T04:19:33;10.60;76.10
1415;DHT22;702;49.466;11.086;2024-03-23T04:22:00;10.50;76.00
1415;DHT22;702;49.466;11.086;2024-03-23T04:24:28;10.50;76.30
1415;DHT22;702;49.466;11.086;2024-03-23T04:26:55;10.50;76.40
1415;DHT22;702;49.466;11.086;2024-03-23T04:29:22;10.60;76.40
1415;DHT22;702;49.466;11.086;2024-03-23T04:31:48;10.60;76.20
1415;DHT22;702;49.466;11.086;2024-03-23T04:34:16;10.60;75.80
1415;DHT22;702;49.466;11.086;2024-03-23T04:36:42;10.70;75.50
1415;DHT22;702;49.466;11.086;2024-03-23T04:39:09;10.70;75.60
1415;DHT22;702;49.466;11.086;2024-03-23T04:41:37;10.60;75.10
1415;DHT22;702;49.466;11.086;2024-03-23T04:44:04;10.60;75.60
1415;DHT22;702;49.466;11.086;2024-03-23T04:46:32;10.60;75.40
1415;DHT22;702;49.466;11.086;2024-03-23T04:48:59;10.60;75.50
1415;DHT22;702;49.466;11.086;2024-03-23T04:51:26;10.60;75.60
1415;DHT22;702;49.466;11.086;2024-03-23T04:53:54;10.50;75.30
1415;DHT22;702;49.466;11.086;2024-03-23T04:56:21;10.60;75.80
1415;DHT22;702;49.466;11.086;2024-03-23T04:58:50;10.50;75.50
1415;DHT22;702;49.466;11.086;2024-03-23T05:01:16;10.30;75.50
1415;DHT22;702;49.466;11.086;2024-03-23T05:03:43;10.30;75.90
1415;DHT22;702;49.466;11.086;2024-03-23T05:06:09;10.20;75.80
1415;DHT22;702;49.466;11.086;2024-03-23T05:08:36;10.20;76.30
1415;DHT22;702;49.466;11.086;2024-03-23T05:11:02;10.10;76.30
1415;DHT22;702;49.466;11.086;2024-03-23T05:13:31;10.10;76.40
1415;DHT22;702;49.466;11.086;2024-03-23T05:15:58;10.10;76.60
1415;DHT22;702;49.466;11.086;2024-03-23T05:18:26;10.20;76.30
1415;DHT22;702;49.466;11.086;2024-03-23T05:20:56;10.20;76.30
1415;DHT22;702;49.466;11.086;2024-03-23T05:23:23;10.20;76.20
1415;DHT22;702;49.466;11.086;2024-03-23T05:25:50;10.30;76.80
1415;DHT22;702;49.466;11.086;2024-03-23T05:28:17;10.50;76.60
1415;DHT22;702;49.466;11.086;2024-03-23T05:30:44;10.80;76.40
1415;DHT22;702;49.466;11.086;2024-03-23T05:33:12;11.00;75.80
1415;DHT22;702;49.466;11.086;2024-03-23T05:35:38;11.20;75.20
1415;DHT22;702;49.466;11.086;2024-03-23T05:38:06;11.30;75.30
1415;DHT22;702;49.466;11.086;2024-03-23T05:40:32;11.30;75.10
1415;DHT22;702;49.466;11.086;2024-03-23T05:43:03;11.40;74.70
1415;DHT22;702;49.466;11.086;2024-03-23T05:45:29;11.40;74.40
1415;DHT22;702;49.466;11.086;2024-03-23T05:47:56;11.50;74.30
1415;DHT22;702;49.466;11.086;2024-03-23T05:50:24;11.50;74.30
1415;DHT22;702;49.466;11.086;2024-03-23T05:52:53;11.70;74.00
1415;DHT22;702;49.466;11.086;2024-03-23T05:55:20;11.70;74.00
1415;DHT22;702;49.466;11.086;2024-03-23T05:57:47;11.70;73.90
1415;DHT22;702;49.466;11.086;2024-03-23T06:00:14;11.70;73.90
1415;DHT22;702;49.466;11.086;2024-03-23T06:02:42;11.70;73.90
1415;DHT22;702;49.466;11.086;2024-03-23T06:05:10;11.60;74.00
1415;DHT22;702;49.466;11.086;2024-03-23T06:07:39;11.60;74.20
1415;DHT22;702;49.466;11.086;2024-03-23T06:10:06;11.60;74.10
1415;DHT22;702;49.466;11.086;2024-03-23T06:12:34;11.60;74.20
1415;DHT22;702;49.466;11.086;2024-03-23T06:15:00;11.60;74.60
1415;DHT22;702;49.466;11.086;2024-03-23T06:17:28;11.50;75.50
1415;DHT22;702;49.466;11.086;2024-03-23T06:19:54;11.30;77.50
1415;DHT22;702;49.466;11.086;2024-03-23T06:22:21;11.10;79.70
1415;DHT22;702;49.466;11.086;2024-03-23T06:24:49;10.90;81.10
1415;DHT22;702;49.466;11.086;2024-03-23T06:27:16;10.80;82.70
1415;DHT22;702;49.466;11.086;2024-03-23T06:29:42;10.70;83.10
1415;DHT22;702;49.466;11.086;2024-03-23T06:32:09;10.70;83.80
1415;DHT22;702;49.466;11.086;2024-03-23T06:34:37;10.60;84.00
1415;DHT22;702;49.466;11.086;2024-03-23T06:37:04;10.70;84.60
1415;DHT22;702;49.466;11.086;2024-03-23T06:39:31;10.70;84.30
1415;DHT22;702;49.466;11.086;2024-03-23T06:42:00;10.70;84.80
1415;DHT22;702;49.466;11.086;2024-03-23T06:44:26;10.70;84.80
1415;DHT22;702;49.466;11.086;2024-03-23T06:46:53;10.70;84.80
1415;DHT22;702;49.466;11.086;2024-03-23T06:49:20;10.70;84.80
1415;DHT22;702;49.466;11.086;2024-03-23T06:51:47;10.70;84.90
1415;DHT22;702;49.466;11.086;2024-03-23T06:54:13;10.80;84.60
1415;DHT22;702;49.466;11.086;2024-03-23T06:56:40;10.90;84.40
1415;DHT22;702;49.466;11.086;2024-03-23T06:59:09;10.90;84.30
1415;DHT22;702;49.466;11.086;2024-03-23T07:01:37;11.00;84.00
1415;DHT22;702;49.466;11.086;2024-03-23T07:04:04;11.00;83.60
1415;DHT22;702;49.466;11.086;2024-03-23T07:06:31;11.00;83.40
1415;DHT22;702;49.466;11.086;2024-03-23T07:08:59;11.00;83.20
1415;DHT22;702;49.466;11.086;2024-03-23T07:11:26;11.00;83.20
1415;DHT22;702;49.466;11.086;2024-03-23T07:13:54;10.90;82.90
1415;DHT22;702;49.466;11.086;2024-03-23T07:16:26;10.90;82.50
1415;DHT22;702;49.466;11.086;2024-03-23T07:18:53;10.90;82.80
1415;DHT22;702;49.466;11.086;2024-03-23T07:21:22;10.90;82.70
1415;DHT22;702;49.466;11.086;2024-03-23T07:23:48;10.90;82.20
1415;DHT22;702;49.466;11.086;2024-03-23T07:26:15;10.90;82.30
1415;DHT22;702;49.466;11.086;2024-03-23T07:28:43;10.90;81.90
1415;DHT22;702;49.466;11.086;2024-03-23T07:31:13;10.90;80.90
1415;DHT22;702;49.466;11.086;2024-03-23T07:33:45;10.90;80.90
1415;DHT22;702;49.466;11.086;2024-03-23T07:36:14;10.90;80.60
1415;DHT22;702;49.466;11.086;2024-03-23T07:38:41;10.80;81.00
1415;DHT22;702;49.466;11.086;2024-03-23T07:41:11;10.90;81.30
1415;DHT22;702;49.466;11.086;2024-03-23T07:43:40;10.80;81.00
1415;DHT22;702;49.466;11.086;2024-03-23T07:46:11;10.90;81.50
1415;DHT22;702;49.466;11.086;2024-03-23T07:48:38;10.80;81.00
1415;DHT22;702;49.466;11.086;2024-03-23T07:51:17;10.70;81.50
1415;DHT22;702;49.466;11.086;2024-03-23T07:53:47;10.80;81.50
1415;DHT22;702;49.466;11.086;2024-03-23T07:56:15;11.00;82.40
1415;DHT22;702;49.466;11.086;2024-03-23T07:58:44;11.30;81.50
1415;DHT22;702;49.466;11.086;2024-03-23T08:01:12;11.50;81.10
1415;DHT22;702;49.466;11.086;2024-03-23T08:03:42;11.50;80.30
1415;DHT22;702;49.466;11.086;2024-03-23T08:06:14;11.50;80.50
1415;DHT22;702;49.466;11.086;2024-03-23T08:08:44;11.40;80.10
1415;DHT22;702;49.466;11.086;2024-03-23T08:11:11;11.40;80.10
1415;DHT22;702;49.466;11.086;2024-03-23T08:13:41;11.60;80.20
1415;DHT22;702;49.466;11.086;2024-03-23T08:16:10;11.70;79.80
1415;DHT22;702;49.466;11.086;2024-03-23T08:18:38;11.40;80.00
1415;DHT22;702;49.466;11.086;2024-03-23T08:21:05;11.00;81.60
1415;DHT22;702;49.466;11.086;2024-03-23T08:23:36;10.60;82.60
1415;DHT22;702;49.466;11.086;2024-03-23T08:26:06;10.20;86.90
1415;DHT22;702;49.466;11.086;2024-03-23T08:28:36;9.30;88.40
1415;DHT22;702;49.466;11.086;2024-03-23T08:31:05;8.70;90.10
1415;DHT22;702;49.466;11.086;2024-03-23T08:33:34;8.50;91.30
1415;DHT22;702;49.466;11.086;2024-03-23T08:36:05;8.40;92.00
1415;DHT22;702;49.466;11.086;2024-03-23T08:38:39;8.40;92.00
1415;DHT22;702;49.466;11.086;2024-03-23T08:41:08;8.40;91.60
1415;DHT22;702;49.466;11.086;2024-03-23T08:43:37;8.50;90.50
1415;DHT22;702;49.466;11.086;2024-03-23T08:46:05;8.50;88.70
1415;DHT22;702;49.466;11.086;2024-03-23T08:48:44;8.40;86.30
1415;DHT22;702;49.466;11.086;2024-03-23T08:51:13;8.40;87.00
1415;DHT22;702;49.466;11.086;2024-03-23T08:53:45;8.60;86.90
1415;DHT22;702;49.466;11.086;2024-03-23T08:56:12;8.70;85.80
1415;DHT22;702;49.466;11.086;2024-03-23T08:58:42;9.00;84.90
1415;DHT22;702;49.466;11.086;2024-03-23T09:01:12;9.30;84.00
1415;DHT22;702;49.466;11.086;2024-03-23T09:03:43;9.50;82.60
1415;DHT22;702;49.466;11.086;2024-03-23T09:06:13;9.50;81.20
1415;DHT22;702;49.466;11.086;2024-03-23T09:08:49;9.30;81.60
1415;DHT22;702;49.466;11.086;2024-03-23T09:11:15;8.90;81.40
1415;DHT22;702;49.466;11.086;2024-03-23T09:13:43;8.50;81.20
1415;DHT22;702;49.466;11.086;2024-03-23T09:16:09;8.40;82.30
1415;DHT22;702;49.466;11.086;2024-03-23T09:18:37;8.50;81.80
1415;DHT22;702;49.466;11.086;2024-03-23T09:21:11;8.60;81.30
1415;DHT22;702;49.466;11.086;2024-03-23T09:23:38;8.50;80.70
1415;DHT22;702;49.466;11.086;2024-03-23T09:26:06;8.50;80.60
1415;DHT22;702;49.466;11.086;2024-03-23T09:28:34;8.60;80.10
1415;DHT22;702;49.466;11.086;2024-03-23T09:31:02;8.70;79.60
1415;DHT22;702;49.466;11.086;2024-03-23T09:33:30;8.80;78.90
1415;DHT22;702;49.466;11.086;2024-03-23T09:35:56;8.90;79.00
1415;DHT22;702;49.466;11.086;2024-03-23T09:38:24;8.80;78.90
1415;DHT22;702;49.466;11.086;2024-03-23T09:40:53;8.60;79.50
1415;DHT22;702;49.466;11.086;2024-03-23T09:43:21;8.60;78.00
1415;DHT22;702;49.466;11.086;2024-03-23T09:45:49;8.70;77.20
1415;DHT22;702;49.466;11.086;2024-03-23T09:48:16;8.80;76.80
1415;DHT22;702;49.466;11.086;2024-03-23T09:50:43;8.70;76.10
1415;DHT22;702;49.466;11.086;2024-03-23T09:53:13;9.10;76.20
1415;DHT22;702;49.466;11.086;2024-03-23T09:55:40;9.30;74.70
1415;DHT22;702;49.466;11.086;2024-03-23T09:58:12;9.20;73.20
1415;DHT22;702;49.466;11.086;2024-03-23T10:00:41;9.40;73.40
1415;DHT22;702;49.466;11.086;2024-03-23T10:03:11;9.80;72.30
1415;DHT22;702;49.466;11.086;2024-03-23T10:05:37;9.70;71.40
1415;DHT22;702;49.466;11.086;2024-03-23T10:08:18;9.40;71.50
1415;DHT22;702;49.466;11.086;2024-03-23T10:10:47;9.30;71.90
1415;DHT22;702;49.466;11.086;2024-03-23T10:13:27;9.20;71.00
1415;DHT22;702;49.466;11.086;2024-03-23T10:16:04;9.20;71.30
1415;DHT22;702;49.466;11.086;2024-03-23T10:18:37;9.50;71.30
1415;DHT22;702;49.466;11.086;2024-03-23T10:21:08;9.70;70.20
1415;DHT22;702;49.466;11.086;2024-03-23T10:23:38;9.40;68.90
1415;DHT22;702;49.466;11.086;2024-03-23T10:26:15;9.10;69.10
1415;DHT22;702;49.466;11.086;2024-03-23T10:28:53;9.00;69.40
1415;DHT22;702;49.466;11.086;2024-03-23T10:31:24;9.10;69.40
1415;DHT22;702;49.466;11.086;2024-03-23T10:33:52;9.20;69.80
1415;DHT22;702;49.466;11.086;2024-03-23T10:36:20;9.30;69.50
1415;DHT22;702;49.466;11.086;2024-03-23T10:38:50;9.30;69.80
1415;DHT22;702;49.466;11.086;2024-03-23T10:41:17;9.50;69.50
1415;DHT22;702;49.466;11.086;2024-03-23T10:43:46;9.80;67.90
1415;DHT22;702;49.466;11.086;2024-03-23T10:46:13;9.90;65.50
1415;DHT22;702;49.466;11.086;2024-03-23T10:48:42;10.00;64.80
1415;DHT22;702;49.466;11.086;2024-03-23T10:51:11;10.00;64.80
1415;DHT22;702;49.466;11.086;2024-03-23T10:53:42;9.80;65.10
1415;DHT22;702;49.466;11.086;2024-03-23T10:56:08;9.70;65.10
1415;DHT22;702;49.466;11.086;2024-03-23T10:58:41;9.80;64.70
1415;DHT22;702;49.466;11.086;2024-03-23T11:01:11;9.60;65.00
1415;DHT22;702;49.466;11.086;2024-03-23T11:03:44;9.60;65.60
1415;DHT22;702;49.466;11.086;2024-03-23T11:06:34;9.50;64.90
1415;DHT22;702;49.466;11.086;2024-03-23T11:09:02;9.50;64.10
1415;DHT22;702;49.466;11.086;2024-03-23T11:11:29;9.50;63.60
1415;DHT22;702;49.466;11.086;2024-03-23T11:13:59;9.40;63.40
1415;DHT22;702;49.466;11.086;2024-03-23T11:16:27;9.90;63.50
1415;DHT22;702;49.466;11.086;2024-03-23T11:22:02;10.00;59.50
1415;DHT22;702;49.466;11.086;2024-03-23T11:24:31;9.90;60.40
1415;DHT22;702;49.466;11.086;2024-03-23T11:26:58;9.80;60.20
1415;DHT22;702;49.466;11.086;2024-03-23T11:29:26;9.70;60.40
1415;DHT22;702;49.466;11.086;2024-03-23T11:31:56;10.00;59.70
1415;DHT22;702;49.466;11.086;2024-03-23T11:34:28;10.40;59.40
1415;DHT22;702;49.466;11.086;2024-03-23T11:37:04;10.30;58.50
1415;DHT22;702;49.466;11.086;2024-03-23T11:39:31;9.90;59.30
1415;DHT22;702;49.466;11.086;2024-03-23T11:41:58;9.70;59.00
1415;DHT22;702;49.466;11.086;2024-03-23T11:44:27;9.60;58.80
1415;DHT22;702;49.466;11.086;2024-03-23T11:46:54;9.50;59.00
1415;DHT22;702;49.466;11.086;2024-03-23T11:49:34;9.50;58.60
1415;DHT22;702;49.466;11.086;2024-03-23T11:52:08;9.30;57.80
1415;DHT22;702;49.466;11.086;2024-03-23T11:54:35;9.30;58.10
1415;DHT22;702;49.466;11.086;2024-03-23T11:57:04;9.50;58.60
1415;DHT22;702;49.466;11.086;2024-03-23T11:59:34;9.50;58.70
1415;DHT22;702;49.466;11.086;2024-03-23T12:02:06;9.60;58.60
1415;DHT22;702;49.466;11.086;2024-03-23T12:04:34;9.50;58.10
1415;DHT22;702;49.466;11.086;2024-03-23T12:07:14;9.50;57.10
1415;DHT22;702;49.466;11.086;2024-03-23T12:09:44;9.50;56.50
1415;DHT22;702;49.466;11.086;2024-03-23T12:12:14;9.70;57.10
1415;DHT22;702;49.466;11.086;2024-03-23T12:14:43;9.90;56.20
1415;DHT22;702;49.466;11.086;2024-03-23T12:17:14;9.90;56.00
1415;DHT22;702;49.466;11.086;2024-03-23T12:19:44;10.00;52.90
1415;DHT22;702;49.466;11.086;2024-03-23T12:22:12;9.80;53.50
1415;DHT22;702;49.466;11.086;2024-03-23T12:24:39;9.80;53.60
1415;DHT22;702;49.466;11.086;2024-03-23T12:27:11;9.70;53.90
1415;DHT22;702;49.466;11.086;2024-03-23T12:29:38;9.40;54.50
1415;DHT22;702;49.466;11.086;2024-03-23T12:32:05;9.30;55.10
1415;DHT22;702;49.466;11.086;2024-03-23T12:34:33;9.30;55.60
1415;DHT22;702;49.466;11.086;2024-03-23T12:36:59;9.40;55.30
1415;DHT22;702;49.466;11.086;2024-03-23T12:39:27;9.60;55.60
1415;DHT22;702;49.466;11.086;2024-03-23T12:41:54;10.10;54.70
1415;DHT22;702;49.466;11.086;2024-03-23T12:44:22;10.50;54.00
1415;DHT22;702;49.466;11.086;2024-03-23T12:46:48;10.90;52.50
1415;DHT22;702;49.466;11.086;2024-03-23T12:49:16;11.20;52.70
1415;DHT22;702;49.466;11.086;2024-03-23T12:51:49;11.30;50.80
1415;DHT22;702;49.466;11.086;2024-03-23T12:54:21;11.10;50.30
1415;DHT22;702;49.466;11.086;2024-03-23T12:56:49;11.20;50.40
1415;DHT22;702;49.466;11.086;2024-03-23T12:59:16;11.40;50.40
1415;DHT22;702;49.466;11.086;2024-03-23T13:01:44;11.70;51.20
1415;DHT22;702;49.466;11.086;2024-03-23T13:04:11;11.30;50.70
1415;DHT22;702;49.466;11.086;2024-03-23T13:06:37;11.20;50.70
1415;DHT22;702;49.466;11.086;2024-03-23T13:09:04;11.00;51.20
1415;DHT22;702;49.466;11.086;2024-03-23T13:11:31;11.20;50.80
1415;DHT22;702;49.466;11.086;2024-03-23T13:14:00;11.00;51.00
1415;DHT22;702;49.466;11.086;2024-03-23T13:16:26;11.30;50.70
1415;DHT22;702;49.466;11.086;2024-03-23T13:18:53;11.60;50.20
1415;DHT22;702;49.466;11.086;2024-03-23T13:21:20;11.70;49.30
1415;DHT22;702;49.466;11.086;2024-03-23T13:23:47;11.30;47.90
1415;DHT22;702;49.466;11.086;2024-03-23T13:26:16;10.80;47.70
1415;DHT22;702;49.466;11.086;2024-03-23T13:28:43;10.70;48.00
1415;DHT22;702;49.466;11.086;2024-03-23T13:31:12;10.40;48.20
1415;DHT22;702;49.466;11.086;2024-03-23T13:33:39;10.20;48.50
1415;DHT22;702;49.466;11.086;2024-03-23T13:36:08;10.00;48.20
1415;DHT22;702;49.466;11.086;2024-03-23T13:38:35;9.90;49.40
1415;DHT22;702;49.466;11.086;2024-03-23T13:41:02;10.00;48.80
1415;DHT22;702;49.466;11.086;2024-03-23T13:43:32;10.10;48.40
1415;DHT22;702;49.466;11.086;2024-03-23T13:45:59;10.20;48.10
1415;DHT22;702;49.466;11.086;2024-03-23T13:48:28;10.50;48.30
1415;DHT22;702;49.466;11.086;2024-03-23T13:50:59;10.70;47.60
1415;DHT22;702;49.466;11.086;2024-03-23T13:53:27;10.60;47.70
1415;DHT22;702;49.466;11.086;2024-03-23T13:55:53;10.60;47.60
1415;DHT22;702;49.466;11.086;2024-03-23T13:58:21;10.80;47.80
1415;DHT22;702;49.466;11.086;2024-03-23T14:00:47;10.60;47.60
1415;DHT22;702;49.466;11.086;2024-03-23T14:03:15;10.60;47.80
1415;DHT22;702;49.466;11.086;2024-03-23T14:05:43;10.50;47.90
1415;DHT22;702;49.466;11.086;2024-03-23T14:08:13;10.50;48.00
1415;DHT22;702;49.466;11.086;2024-03-23T14:10:41;10.90;47.70
1415;DHT22;702;49.466;11.086;2024-03-23T14:13:09;11.20;46.70
1415;DHT22;702;49.466;11.086;2024-03-23T14:15:35;11.40;46.50
1415;DHT22;702;49.466;11.086;2024-03-23T14:18:03;11.10;45.90
1415;DHT22;702;49.466;11.086;2024-03-23T14:20:30;11.10;46.60
1415;DHT22;702;49.466;11.086;2024-03-23T14:22:59;11.40;47.00
1415;DHT22;702;49.466;11.086;2024-03-23T14:25:26;11.70;47.00
1415;DHT22;702;49.466;11.086;2024-03-23T14:27:54;11.60;45.90
1415;DHT22;702;49.466;11.086;2024-03-23T14:30:21;11.60;45.70
1415;DHT22;702;49.466;11.086;2024-03-23T14:32:48;11.80;45.40
1415;DHT22;702;49.466;11.086;2024-03-23T14:35:15;11.70;45.10
1415;DHT22;702;49.466;11.086;2024-03-23T14:37:42;11.40;44.30
1415;DHT22;702;49.466;11.086;2024-03-23T14:40:10;11.30;43.80
1415;DHT22;702;49.466;11.086;2024-03-23T14:42:38;11.20;43.10
1415;DHT22;702;49.466;11.086;2024-03-23T14:45:05;11.00;43.10
1415;DHT22;702;49.466;11.086;2024-03-23T14:47:33;11.00;43.60
1415;DHT22;702;49.466;11.086;2024-03-23T14:49:59;10.90;44.00
1415;DHT22;702;49.466;11.086;2024-03-23T14:52:27;10.90;46.30
1415;DHT22;702;49.466;11.086;2024-03-23T14:54:53;10.40;47.30
1415;DHT22;702;49.466;11.086;2024-03-23T14:57:23;10.10;47.90
1415;DHT22;702;49.466;11.086;2024-03-23T14:59:50;10.00;48.90
1415;DHT22;702;49.466;11.086;2024-03-23T15:02:26;10.10;49.70
1415;DHT22;702;49.466;11.086;2024-03-23T15:04:53;10.10;50.20
1415;DHT22;702;49.466;11.086;2024-03-23T15:07:21;10.00;50.20
1415;DHT22;702;49.466;11.086;2024-03-23T15:09:47;9.90;51.30
1415;DHT22;702;49.466;11.086;2024-03-23T15:12:15;9.80;51.50
1415;DHT22;702;49.466;11.086;2024-03-23T15:14:43;9.70;51.60
1415;DHT22;702;49.466;11.086;2024-03-23T15:17:11;8.40;58.50
1415;DHT22;702;49.466;11.086;2024-03-23T15:19:37;7.30;74.70
1415;DHT22;702;49.466;11.086;2024-03-23T15:22:05;6.50;81.00
1415;DHT22;702;49.466;11.086;2024-03-23T15:24:31;5.90;84.40
1415;DHT22;702;49.466;11.086;2024-03-23T15:27:00;5.60;87.00
1415;DHT22;702;49.466;11.086;2024-03-23T15:29:27;5.40;90.00
1415;DHT22;702;49.466;11.086;2024-03-23T15:31:55;5.80;90.80
1415;DHT22;702;49.466;11.086;2024-03-23T15:34:22;6.30;90.20
1415;DHT22;702;49.466;11.086;2024-03-23T15:36:50;6.50;88.70
1415;DHT22;702;49.466;11.086;2024-03-23T15:39:16;6.50;88.60
1415;DHT22;702;49.466;11.086;2024-03-23T15:41:45;6.30;88.00
1415;DHT22;702;49.466;11.086;2024-03-23T15:44:11;6.40;89.00
1415;DHT22;702;49.466;11.086;2024-03-23T15:46:39;6.30;87.00
1415;DHT22;702;49.466;11.086;2024-03-23T15:49:07;6.40;88.00
1415;DHT22;702;49.466;11.086;2024-03-23T15:51:34;6.50;86.30
1415;DHT22;702;49.466;11.086;2024-03-23T15:54:03;6.60;85.00
1415;DHT22;702;49.466;11.086;2024-03-23T15:56:31;6.60;83.50
1415;DHT22;702;49.466;11.086;2024-03-23T15:58:57;6.60;84.50
1415;DHT22;702;49.466;11.086;2024-03-23T16:01:31;6.70;83.60
1415;DHT22;702;49.466;11.086;2024-03-23T16:03:59;6.70;82.80
1415;DHT22;702;49.466;11.086;2024-03-23T16:06:28;6.70;82.60
1415;DHT22;702;49.466;11.086;2024-03-23T16:08:54;6.70;81.70
1415;DHT22;702;49.466;11.086;2024-03-23T16:11:22;6.70;81.00
1415;DHT22;702;49.466;11.086;2024-03-23T16:13:48;6.70;81.20
1415;DHT22;702;49.466;11.086;2024-03-23T16:16:15;6.70;80.50
1415;DHT22;702;49.466;11.086;2024-03-23T16:18:42;6.80;80.70
1415;DHT22;702;49.466;11.086;2024-03-23T16:21:11;6.80;80.30
1415;DHT22;702;49.466;11.086;2024-03-23T16:23:38;6.90;79.70
1415;DHT22;702;49.466;11.086;2024-03-23T16:26:07;6.90;79.80
1415;DHT22;702;49.466;11.086;2024-03-23T16:28:35;7.00;79.30
1415;DHT22;702;49.466;11.086;2024-03-23T16:31:05;7.00;78.70
1415;DHT22;702;49.466;11.086;2024-03-23T16:33:32;7.00;78.20
1415;DHT22;702;49.466;11.086;2024-03-23T16:36:01;7.00;78.10
1415;DHT22;702;49.466;11.086;2024-03-23T16:38:31;7.00;78.30
1415;DHT22;702;49.466;11.086;2024-03-23T16:41:03;7.00;76.60
1415;DHT22;702;49.466;11.086;2024-03-23T16:43:32;7.00;77.20
1415;DHT22;702;49.466;11.086;2024-03-23T16:46:01;7.00;76.80
1415;DHT22;702;49.466;11.086;2024-03-23T16:48:30;7.00;76.50
1415;DHT22;702;49.466;11.086;2024-03-23T16:51:00;7.10;76.30
1415;DHT22;702;49.466;11.086;2024-03-23T16:53:29;7.10;76.40
1415;DHT22;702;49.466;11.086;2024-03-23T16:55:59;7.20;75.50
1415;DHT22;702;49.466;11.086;2024-03-23T16:58:36;7.20;75.20
1415;DHT22;702;49.466;11.086;2024-03-23T17:01:28;7.20;75.30
1415;DHT22;702;49.466;11.086;2024-03-23T17:03:56;7.10;75.30
1415;DHT22;702;49.466;11.086;2024-03-23T17:06:27;7.00;74.20
1415;DHT22;702;49.466;11.086;2024-03-23T17:08:54;6.90;74.90
1415;DHT22;702;49.466;11.086;2024-03-23T17:11:22;6.90;74.60
1415;DHT22;702;49.466;11.086;2024-03-23T17:13:50;6.80;74.20